PWSweather.com
Personal Weather Stations
Station Observations
DW1039
Liberty & Fairfield Townships, Hamilton, OH 45011

Liberty & Fairfield TownshipsHamilton, OH 45011

Lat: 39.3933, Lon: -84.477

Elevation: 780

Station Type: Davis Vantage Pro2 (Daytime Fan Aspirated)

http://www.lfweathercenter.com/

Latest ConditionsUpdated 12:20:10 PM EST Friday, Mar 6, 2015
Currently Today's Max Today's Min Today's Average
Temperature 23.9°F-4.5°C 23.9°F-4.5°C 3.1°F-16.1°C 9.7°F-12.4°C
Dew Point 12.1°F-11.1°C 12.1°F-11.1°C -0.4°F-18.0°C 4.6°F-15.2°C
Winds 14.0 mph SSW22.5 kmh SSW 14.0 mph SSW22.5 kmh SSW - 1.2 mph 1.9 kmh
Wind Gusts 14.0 mph22.5 kmh 14.0 mph22.5 kmh - -
Humidity 60% 86% 59% 80%
Pressure 30.61 in1036.6 mb 30.66 in1038.3 mb 30.61 in1036.6 mb -
Hour Temp Dew Point Humidity Winds Wind Gusts Pressure Precip Precip Rate Daily Precip Total
12:20 PM 23.9°F-4.5°C 12.1°F-11.1°C 60% 14.0 mph SSW22.5 kmh SSW 14.0 mph22.5 kmh 30.61 in1036.6 mb 0.00 in0.0 mm 0.00 in/hr0.0 mm/hr 0.00 in0.0 mm
12:10 PM 23.5°F-4.7°C 11.3°F-11.5°C 59% 4.0 mph SE6.4 kmh SE 11.0 mph17.7 kmh 30.62 in1036.9 mb 0.00 in0.0 mm 0.00 in/hr0.0 mm/hr 0.00 in0.0 mm
12:00 PM 23.3°F-4.8°C 11.5°F-11.4°C 60% 5.0 mph S8.0 kmh S 12.0 mph19.3 kmh 30.62 in1036.9 mb 0.00 in0.0 mm 0.00 in/hr0.0 mm/hr 0.00 in0.0 mm
11:50 AM 22.9°F-5.1°C 11.8°F-11.2°C 62% 8.0 mph SSW12.9 kmh SSW 10.0 mph16.1 kmh 30.63 in1037.3 mb 0.00 in0.0 mm 0.00 in/hr0.0 mm/hr 0.00 in0.0 mm
11:40 AM 22.0°F-5.6°C 11.0°F-11.7°C 62% 6.0 mph SW9.7 kmh SW 13.0 mph20.9 kmh 30.63 in1037.3 mb 0.00 in0.0 mm 0.00 in/hr0.0 mm/hr 0.00 in0.0 mm
11:30 AM 22.4°F-5.3°C 11.7°F-11.3°C 63% 7.0 mph SW11.3 kmh SW 11.0 mph17.7 kmh 30.63 in1037.3 mb 0.00 in0.0 mm 0.00 in/hr0.0 mm/hr 0.00 in0.0 mm
11:20 AM 21.5°F-5.8°C 11.6°F-11.3°C 65% 2.0 mph SE3.2 kmh SE 12.0 mph19.3 kmh 30.63 in1037.3 mb 0.00 in0.0 mm 0.00 in/hr0.0 mm/hr 0.00 in0.0 mm
11:10 AM 20.9°F-6.2°C 11.3°F-11.5°C 66% 11.0 mph S17.7 kmh S 12.0 mph19.3 kmh 30.64 in1037.6 mb 0.00 in0.0 mm 0.00 in/hr0.0 mm/hr 0.00 in0.0 mm
11:00 AM 20.9°F-6.2°C 11.0°F-11.7°C 65% 4.0 mph SE6.4 kmh SE 11.0 mph17.7 kmh 30.63 in1037.3 mb 0.00 in0.0 mm 0.00 in/hr0.0 mm/hr 0.00 in0.0 mm
10:50 AM 20.6°F-6.3°C 11.4°F-11.4°C 67% 9.0 mph SSE14.5 kmh SSE 12.0 mph19.3 kmh 30.63 in1037.3 mb 0.00 in0.0 mm 0.00 in/hr0.0 mm/hr 0.00 in0.0 mm
10:40 AM 20.1°F-6.6°C 10.9°F-11.7°C 67% 2.0 mph SSE3.2 kmh SSE 10.0 mph16.1 kmh 30.64 in1037.6 mb 0.00 in0.0 mm 0.00 in/hr0.0 mm/hr 0.00 in0.0 mm
10:30 AM 19.6°F-6.9°C 11.7°F-11.3°C 71% Calm Calm 8.0 mph12.9 kmh 30.65 in1037.9 mb 0.00 in0.0 mm 0.00 in/hr0.0 mm/hr 0.00 in0.0 mm
10:20 AM 18.7°F-7.4°C 11.8°F-11.2°C 74% 2.0 mph SSE3.2 kmh SSE 7.0 mph11.3 kmh 30.65 in1037.9 mb 0.00 in0.0 mm 0.00 in/hr0.0 mm/hr 0.00 in0.0 mm
10:10 AM 18.3°F-7.6°C 12.0°F-11.1°C 76% 3.0 mph SSE4.8 kmh SSE 6.0 mph9.7 kmh 30.66 in1038.3 mb 0.00 in0.0 mm 0.00 in/hr0.0 mm/hr 0.00 in0.0 mm
10:00 AM 17.4°F-8.1°C 11.7°F-11.3°C 78% 1.0 mph WSW1.6 kmh WSW 5.0 mph8.0 kmh 30.66 in1038.3 mb 0.00 in0.0 mm 0.00 in/hr0.0 mm/hr 0.00 in0.0 mm
09:50 AM 16.8°F-8.4°C 11.7°F-11.3°C 80% 4.0 mph SSW6.4 kmh SSW 5.0 mph8.0 kmh 30.66 in1038.3 mb 0.00 in0.0 mm 0.00 in/hr0.0 mm/hr 0.00 in0.0 mm
09:40 AM 16.2°F-8.8°C 11.4°F-11.4°C 81% 3.0 mph SSW4.8 kmh SSW 6.0 mph9.7 kmh 30.66 in1038.3 mb 0.00 in0.0 mm 0.00 in/hr0.0 mm/hr 0.00 in0.0 mm
09:30 AM 15.6°F-9.1°C 11.4°F-11.4°C 83% Calm Calm 4.0 mph6.4 kmh 30.66 in1038.3 mb 0.00 in0.0 mm 0.00 in/hr0.0 mm/hr 0.00 in0.0 mm
09:20 AM 15.2°F-9.3°C 11.2°F-11.6°C 84% 3.0 mph SSW4.8 kmh SSW 4.0 mph6.4 kmh 30.66 in1038.3 mb 0.00 in0.0 mm 0.00 in/hr0.0 mm/hr 0.00 in0.0 mm
09:10 AM 14.0°F-10.0°C 10.3°F-12.1°C 85% 2.0 mph SW3.2 kmh SW 4.0 mph6.4 kmh 30.66 in1038.3 mb 0.00 in0.0 mm 0.00 in/hr0.0 mm/hr 0.00 in0.0 mm
09:00 AM 13.1°F-10.5°C 9.5°F-12.5°C 85% Calm Calm 3.0 mph4.8 kmh 30.66 in1038.3 mb 0.00 in0.0 mm 0.00 in/hr0.0 mm/hr 0.00 in0.0 mm
08:50 AM 11.9°F-11.2°C 8.3°F-13.2°C 85% Calm Calm 2.0 mph3.2 kmh 30.65 in1037.9 mb 0.00 in0.0 mm 0.00 in/hr0.0 mm/hr 0.00 in0.0 mm
08:40 AM 10.5°F-11.9°C 6.9°F-13.9°C 85% Calm Calm -- 30.65 in1037.9 mb 0.00 in0.0 mm 0.00 in/hr0.0 mm/hr 0.00 in0.0 mm
08:20 AM 8.7°F-12.9°C 5.4°F-14.8°C 86% Calm Calm -- 30.65 in1037.9 mb 0.00 in0.0 mm 0.00 in/hr0.0 mm/hr 0.00 in0.0 mm
08:10 AM 7.2°F-13.8°C 3.7°F-15.7°C 85% Calm Calm -- 30.65 in1037.9 mb 0.00 in0.0 mm 0.00 in/hr0.0 mm/hr 0.00 in0.0 mm
08:00 AM 6.2°F-14.3°C 2.9°F-16.2°C 86% Calm Calm -- 30.65 in1037.9 mb 0.00 in0.0 mm 0.00 in/hr0.0 mm/hr 0.00 in0.0 mm
07:50 AM 5.3°F-14.8°C 1.8°F-16.8°C 85% Calm Calm -- 30.65 in1037.9 mb 0.00 in0.0 mm 0.00 in/hr0.0 mm/hr 0.00 in0.0 mm
07:40 AM 4.5°F-15.3°C 1.0°F-17.2°C 85% Calm Calm -- 30.64 in1037.6 mb 0.00 in0.0 mm 0.00 in/hr0.0 mm/hr 0.00 in0.0 mm
07:30 AM 4.0°F-15.6°C 0.5°F-17.5°C 85% Calm Calm -- 30.64 in1037.6 mb 0.00 in0.0 mm 0.00 in/hr0.0 mm/hr 0.00 in0.0 mm
07:20 AM 3.5°F-15.8°C 0.0°F-17.8°C 85% Calm Calm -- 30.64 in1037.6 mb 0.00 in0.0 mm 0.00 in/hr0.0 mm/hr 0.00 in0.0 mm
07:10 AM 3.2°F-16.0°C -0.3°F-17.9°C 85% Calm Calm -- 30.63 in1037.3 mb 0.00 in0.0 mm 0.00 in/hr0.0 mm/hr 0.00 in0.0 mm
07:00 AM 3.1°F-16.1°C -0.4°F-18.0°C 85% Calm Calm -- 30.63 in1037.3 mb 0.00 in0.0 mm 0.00 in/hr0.0 mm/hr 0.00 in0.0 mm
06:50 AM 3.3°F-15.9°C -0.2°F-17.9°C 85% Calm Calm -- 30.63 in1037.3 mb 0.00 in0.0 mm 0.00 in/hr0.0 mm/hr 0.00 in0.0 mm
06:40 AM 3.3°F-15.9°C -0.2°F-17.9°C 85% Calm Calm -- 30.63 in1037.3 mb 0.00 in0.0 mm 0.00 in/hr0.0 mm/hr 0.00 in0.0 mm
06:30 AM 3.3°F-15.9°C -0.2°F-17.9°C 85% Calm Calm -- 30.63 in1037.3 mb 0.00 in0.0 mm 0.00 in/hr0.0 mm/hr 0.00 in0.0 mm
06:20 AM 3.6°F-15.8°C -0.1°F-17.8°C 84% Calm Calm -- 30.63 in1037.3 mb 0.00 in0.0 mm 0.00 in/hr0.0 mm/hr 0.00 in0.0 mm
06:10 AM 3.8°F-15.7°C 0.1°F-17.7°C 84% Calm Calm -- 30.64 in1037.6 mb 0.00 in0.0 mm 0.00 in/hr0.0 mm/hr 0.00 in0.0 mm
06:00 AM 4.2°F-15.4°C 0.5°F-17.5°C 84% Calm Calm -- 30.64 in1037.6 mb 0.00 in0.0 mm 0.00 in/hr0.0 mm/hr 0.00 in0.0 mm
05:50 AM 5.0°F-15.0°C 1.2°F-17.1°C 84% Calm Calm -- 30.64 in1037.6 mb 0.00 in0.0 mm 0.00 in/hr0.0 mm/hr 0.00 in0.0 mm
05:40 AM 5.8°F-14.6°C 2.3°F-16.5°C 85% Calm Calm 2.0 mph3.2 kmh 30.64 in1037.6 mb 0.00 in0.0 mm 0.00 in/hr0.0 mm/hr 0.00 in0.0 mm
05:30 AM 5.6°F-14.7°C 2.1°F-16.6°C 85% Calm Calm 1.0 mph1.6 kmh 30.64 in1037.6 mb 0.00 in0.0 mm 0.00 in/hr0.0 mm/hr 0.00 in0.0 mm
05:20 AM 4.9°F-15.1°C 1.4°F-17.0°C 85% Calm Calm 1.0 mph1.6 kmh 30.63 in1037.3 mb 0.00 in0.0 mm 0.00 in/hr0.0 mm/hr 0.00 in0.0 mm
05:10 AM 4.6°F-15.2°C 1.1°F-17.2°C 85% Calm Calm -- 30.62 in1036.9 mb 0.00 in0.0 mm 0.00 in/hr0.0 mm/hr 0.00 in0.0 mm
05:00 AM 4.6°F-15.2°C 0.8°F-17.3°C 84% Calm Calm -- 30.62 in1036.9 mb 0.00 in0.0 mm 0.00 in/hr0.0 mm/hr 0.00 in0.0 mm
04:50 AM 4.6°F-15.2°C 0.8°F-17.3°C 84% Calm Calm -- 30.62 in1036.9 mb 0.00 in0.0 mm 0.00 in/hr0.0 mm/hr 0.00 in0.0 mm
04:40 AM 4.7°F-15.2°C 1.2°F-17.1°C 85% Calm Calm -- 30.61 in1036.6 mb 0.00 in0.0 mm 0.00 in/hr0.0 mm/hr 0.00 in0.0 mm
04:30 AM 4.6°F-15.2°C 0.8°F-17.3°C 84% Calm Calm -- 30.61 in1036.6 mb 0.00 in0.0 mm 0.00 in/hr0.0 mm/hr 0.00 in0.0 mm
04:20 AM 4.7°F-15.2°C 0.9°F-17.3°C 84% Calm Calm -- 30.62 in1036.9 mb 0.00 in0.0 mm 0.00 in/hr0.0 mm/hr 0.00 in0.0 mm
04:10 AM 5.0°F-15.0°C 1.2°F-17.1°C 84% Calm Calm -- 30.62 in1036.9 mb 0.00 in0.0 mm 0.00 in/hr0.0 mm/hr 0.00 in0.0 mm
04:00 AM 5.2°F-14.9°C 1.4°F-17.0°C 84% Calm Calm -- 30.63 in1037.3 mb 0.00 in0.0 mm 0.00 in/hr0.0 mm/hr 0.00 in0.0 mm
03:50 AM 5.6°F-14.7°C 1.8°F-16.8°C 84% Calm Calm -- 30.63 in1037.3 mb 0.00 in0.0 mm 0.00 in/hr0.0 mm/hr 0.00 in0.0 mm
03:40 AM 5.4°F-14.8°C 1.6°F-16.9°C 84% Calm Calm -- 30.63 in1037.3 mb 0.00 in0.0 mm 0.00 in/hr0.0 mm/hr 0.00 in0.0 mm
03:30 AM 4.8°F-15.1°C 1.0°F-17.2°C 84% Calm Calm -- 30.63 in1037.3 mb 0.00 in0.0 mm 0.00 in/hr0.0 mm/hr 0.00 in0.0 mm
03:20 AM 4.8°F-15.1°C 1.0°F-17.2°C 84% Calm Calm -- 30.63 in1037.3 mb 0.00 in0.0 mm 0.00 in/hr0.0 mm/hr 0.00 in0.0 mm
03:10 AM 4.7°F-15.2°C 0.7°F-17.4°C 83% Calm Calm -- 30.63 in1037.3 mb 0.00 in0.0 mm 0.00 in/hr0.0 mm/hr 0.00 in0.0 mm
03:00 AM 5.2°F-14.9°C 1.2°F-17.1°C 83% Calm Calm -- 30.63 in1037.3 mb 0.00 in0.0 mm 0.00 in/hr0.0 mm/hr 0.00 in0.0 mm
02:50 AM 5.9°F-14.5°C 1.9°F-16.7°C 83% Calm Calm -- 30.64 in1037.6 mb 0.00 in0.0 mm 0.00 in/hr0.0 mm/hr 0.00 in0.0 mm
02:40 AM 6.8°F-14.0°C 2.7°F-16.3°C 83% Calm Calm -- 30.64 in1037.6 mb 0.00 in0.0 mm 0.00 in/hr0.0 mm/hr 0.00 in0.0 mm
02:30 AM 6.7°F-14.1°C 2.6°F-16.3°C 83% Calm Calm -- 30.64 in1037.6 mb 0.00 in0.0 mm 0.00 in/hr0.0 mm/hr 0.00 in0.0 mm
02:20 AM 6.6°F-14.1°C 2.6°F-16.3°C 83% Calm Calm -- 30.63 in1037.3 mb 0.00 in0.0 mm 0.00 in/hr0.0 mm/hr 0.00 in0.0 mm
02:10 AM 6.7°F-14.1°C 2.6°F-16.3°C 83% Calm Calm -- 30.63 in1037.3 mb 0.00 in0.0 mm 0.00 in/hr0.0 mm/hr 0.00 in0.0 mm
02:00 AM 6.6°F-14.1°C 2.6°F-16.3°C 83% Calm Calm -- 30.63 in1037.3 mb 0.00 in0.0 mm 0.00 in/hr0.0 mm/hr 0.00 in0.0 mm
01:50 AM 6.8°F-14.0°C 2.7°F-16.3°C 83% Calm Calm -- 30.63 in1037.3 mb 0.00 in0.0 mm 0.00 in/hr0.0 mm/hr 0.00 in0.0 mm
01:40 AM 6.8°F-14.0°C 2.5°F-16.4°C 82% Calm Calm -- 30.62 in1036.9 mb 0.00 in0.0 mm 0.00 in/hr0.0 mm/hr 0.00 in0.0 mm
01:30 AM 7.3°F-13.7°C 3.0°F-16.1°C 82% Calm Calm -- 30.62 in1036.9 mb 0.00 in0.0 mm 0.00 in/hr0.0 mm/hr 0.00 in0.0 mm
01:20 AM 7.5°F-13.6°C 3.2°F-16.0°C 82% Calm Calm -- 30.62 in1036.9 mb 0.00 in0.0 mm 0.00 in/hr0.0 mm/hr 0.00 in0.0 mm
01:10 AM 7.3°F-13.7°C 3.0°F-16.1°C 82% Calm Calm -- 30.62 in1036.9 mb 0.00 in0.0 mm 0.00 in/hr0.0 mm/hr 0.00 in0.0 mm
01:00 AM 7.3°F-13.7°C 3.0°F-16.1°C 82% Calm Calm -- 30.63 in1037.3 mb 0.00 in0.0 mm 0.00 in/hr0.0 mm/hr 0.00 in0.0 mm
12:50 AM 7.2°F-13.8°C 2.9°F-16.2°C 82% Calm Calm -- 30.62 in1036.9 mb 0.00 in0.0 mm 0.00 in/hr0.0 mm/hr 0.00 in0.0 mm
12:40 AM 6.9°F-13.9°C 2.3°F-16.5°C 81% Calm Calm -- 30.62 in1036.9 mb 0.00 in0.0 mm 0.00 in/hr0.0 mm/hr 0.00 in0.0 mm
12:30 AM 7.3°F-13.7°C 2.7°F-16.3°C 81% Calm Calm -- 30.62 in1036.9 mb 0.00 in0.0 mm 0.00 in/hr0.0 mm/hr 0.00 in0.0 mm
12:20 AM 7.9°F-13.4°C 3.0°F-16.1°C 80% Calm Calm -- 30.62 in1036.9 mb 0.00 in0.0 mm 0.00 in/hr0.0 mm/hr 0.00 in0.0 mm
12:10 AM 8.4°F-13.1°C 3.5°F-15.8°C 80% Calm Calm -- 30.62 in1036.9 mb 0.00 in0.0 mm 0.00 in/hr0.0 mm/hr 0.00 in0.0 mm
12:00 AM 8.7°F-12.9°C 3.8°F-15.7°C 80% Calm Calm -- 30.62 in1036.9 mb 0.00 in0.0 mm 0.00 in/hr0.0 mm/hr 0.00 in0.0 mm